Time;durP1;ratioP1;P1;durP2;ratioP2;P2;SDS_P1;SDS_P2;PMS_P1;PMS_P2;Temp;Humidity;BMP_temperature;BMP_pressure;BME280_temperature;BME280_humidity;BME280_pressure;Samples;Min_cycle;Max_cycle;Signal;HPM_P1;HPM_P2
2022/09/01 00:01:48;;;;;;;;;;;;;;;-155.54;100.00;57697.75;4975309;28;20000;-75
2022/09/01 00:04:15;;;;;;;;;;;;;;;-155.54;100.00;57697.75;4978914;28;20013;-76
2022/09/01 00:06:41;;;;;;;;;;;;;;;-155.54;100.00;57697.75;4970711;28;20487;-74
2022/09/01 00:09:10;;;;;;;;;;;;;;;-155.54;100.00;57697.75;4978067;28;20024;-75
2022/09/01 00:11:35;;;;;;;;;;;;;;;-155.54;100.00;57697.75;4971218;28;19990;-74
2022/09/01 00:14:01;;;;;;;;;;;;;;;-155.54;100.00;57697.75;4976842;28;20474;-75
2022/09/01 00:16:26;;;;;;;;;;;;;;;-155.54;100.00;57697.75;4971855;28;19982;-74
2022/09/01 00:18:52;;;;;;;;;;;;;;;-155.54;100.00;57697.75;4976686;28;20038;-75
2022/09/01 00:21:18;;;;;;;;;;;;;;;-155.54;100.00;57697.75;4975495;28;19990;-74
2022/09/01 00:23:43;;;;;;;;;;;;;;;-155.54;100.00;57697.75;4976643;28;19962;-74
2022/09/01 00:26:08;;;;;;;;;;;;;;;-155.54;100.00;57697.75;4982367;28;19994;-73
2022/09/01 00:28:34;;;;;;;;;;;;;;;-155.54;100.00;57697.75;4971534;28;19979;-74
2022/09/01 00:30:59;;;;;;;;;;;;;;;-155.54;100.00;57697.75;4980926;28;20033;-73
2022/09/01 00:33:25;;;;;;;;;;;;;;;-155.54;100.00;57697.75;4981422;28;19996;-74
2022/09/01 00:35:50;;;;;;;;;;;;;;;-155.54;100.00;57697.75;4982365;28;20439;-73
2022/09/01 00:38:15;;;;;;;;;;;;;;;-155.54;100.00;57697.75;4980838;28;20475;-74
2022/09/01 00:40:40;;;;;;;;;;;;;;;-155.54;100.00;57697.75;4976429;28;20343;-76
2022/09/01 00:43:13;;;;;;;;;;;;;;;-155.54;100.00;57697.75;4972628;28;20073;-73
2022/09/01 00:45:40;;;;;;;;;;;;;;;-155.54;100.00;57697.75;4975737;28;20048;-74
2022/09/01 00:48:05;;;;;;;;;;;;;;;-155.54;100.00;57697.75;4994903;28;19985;-74
2022/09/01 00:50:31;;;;;;;;;;;;;;;-155.54;100.00;57697.75;4993990;28;20282;-74
2022/09/01 00:52:56;;;;;;;;;;;;;;;-155.54;100.00;57697.75;4976483;28;20492;-74
2022/09/01 00:55:25;;;;;;;;;;;;;;;-155.54;100.00;57697.75;4997459;28;19997;-74
2022/09/01 00:57:51;;;;;;;;;;;;;;;-155.54;100.00;57697.75;4978767;28;19997;-74
2022/09/01 01:00:20;;;;;;;;;;;;;;;-155.54;100.00;57697.75;4994375;28;20270;-74
2022/09/01 01:02:45;;;;;;;;;;;;;;;-155.54;100.00;57697.75;4981056;28;20576;-73
2022/09/01 01:05:11;;;;;;;;;;;;;;;-155.54;100.00;57697.75;4977755;28;20001;-75
2022/09/01 01:07:41;;;;;;;;;;;;;;;-155.54;100.00;57697.75;4958138;28;20413;-73
2022/09/01 01:10:06;;;;;;;;;;;;;;;-155.54;100.00;57697.75;4999165;28;20381;-75
2022/09/01 01:12:32;;;;;;;;;;;;;;;-155.54;100.00;57697.75;4976364;28;19970;-74
2022/09/01 01:14:57;;;;;;;;;;;;;;;-155.54;100.00;57697.75;4993462;28;19993;-74
2022/09/01 01:17:22;;;;;;;;;;;;;;;-155.54;100.00;57697.75;4982765;28;19969;-73
2022/09/01 01:25:24;;;;;;;;;;;;;;;-155.54;100.00;57697.75;4988820;28;20113;-73
2022/09/01 01:27:49;;;;;;;;;;;;;;;-155.54;100.00;57697.75;4983321;28;20106;-74
2022/09/01 01:30:16;;;;;;;;;;;;;;;-155.54;100.00;57697.75;4985918;28;19990;-74
2022/09/01 01:32:42;;;;;;;;;;;;;;;-155.54;100.00;57697.75;5003416;28;19970;-75
2022/09/01 01:35:13;;;;;;;;;;;;;;;-155.54;100.00;57697.75;4985247;28;20402;-74
2022/09/01 01:37:38;;;;;;;;;;;;;;;-155.54;100.00;57697.75;5002627;28;19985;-73
2022/09/01 01:40:04;;;;;;;;;;;;;;;-155.54;100.00;57697.75;4999407;28;20004;-74
2022/09/01 01:42:31;;;;;;;;;;;;;;;-155.54;100.00;57697.75;5003137;28;20081;-73
2022/09/01 01:44:57;;;;;;;;;;;;;;;-155.54;100.00;57697.75;4968022;28;20208;-75
2022/09/01 01:47:22;;;;;;;;;;;;;;;-155.54;100.00;57697.75;5001856;28;20381;-75
2022/09/01 01:49:47;;;;;;;;;;;;;;;-155.54;100.00;57697.75;4982912;28;19990;-75
2022/09/01 01:52:16;;;;;;;;;;;;;;;-155.54;100.00;57697.75;5003110;28;19977;-73
2022/09/01 01:54:45;;;;;;;;;;;;;;;-155.54;100.00;57697.75;4991233;28;19990;-74
2022/09/01 01:57:10;;;;;;;;;;;;;;;-155.54;100.00;57697.75;5002849;28;19972;-75
2022/09/01 01:59:37;;;;;;;;;;;;;;;-155.54;100.00;57697.75;4986693;28;20393;-74
2022/09/01 02:02:07;;;;;;;;;;;;;;;-155.54;100.00;57697.75;5001919;28;19997;-75
2022/09/01 02:04:33;;;;;;;;;;;;;;;-155.54;100.00;57697.75;5003506;28;19985;-73
2022/09/01 02:06:58;;;;;;;;;;;;;;;-155.54;100.00;57697.75;5001421;28;20044;-73
2022/09/01 02:09:23;;;;;;;;;;;;;;;-155.54;100.00;57697.75;4984599;28;19966;-75
2022/09/01 02:11:53;;;;;;;;;;;;;;;-155.54;100.00;57697.75;5000453;28;19975;-74
2022/09/01 02:14:20;;;;;;;;;;;;;;;-155.54;100.00;57697.75;5001041;28;19993;-73
2022/09/01 02:16:45;;;;;;;;;;;;;;;-155.54;100.00;57697.75;4998719;28;19995;-74
2022/09/01 02:19:11;;;;;;;;;;;;;;;-155.54;100.00;57697.75;4986956;28;19997;-74
2022/09/01 02:21:36;;;;;;;;;;;;;;;-155.54;100.00;57697.75;5004397;28;20582;-74
2022/09/01 02:24:02;;;;;;;;;;;;;;;-155.54;100.00;57697.75;5002560;28;20016;-73
2022/09/01 02:26:30;;;;;;;;;;;;;;;-155.54;100.00;57697.75;4979825;28;19993;-73
2022/09/01 02:28:55;;;;;;;;;;;;;;;-155.54;100.00;57697.75;4991955;28;19996;-74
2022/09/01 02:31:21;;;;;;;;;;;;;;;-155.54;100.00;57697.75;5002964;28;20076;-74
2022/09/01 02:33:47;;;;;;;;;;;;;;;-155.54;100.00;57697.75;5002701;28;20044;-74
2022/09/01 02:36:14;;;;;;;;;;;;;;;-155.54;100.00;57697.75;4987000;28;20668;-74
2022/09/01 02:38:43;;;;;;;;;;;;;;;-155.54;100.00;57697.75;4986774;28;20497;-73
2022/09/01 02:41:08;;;;;;;;;;;;;;;-155.54;100.00;57697.75;4985418;28;20025;-73
2022/09/01 02:43:34;;;;;;;;;;;;;;;-155.54;100.00;57697.75;4986757;28;20036;-73
2022/09/01 02:45:59;;;;;;;;;;;;;;;-155.54;100.00;57697.75;5002415;28;20033;-73
2022/09/01 02:48:34;;;;;;;;;;;;;;;-155.54;100.00;57697.75;4986392;28;20385;-73
2022/09/01 02:51:00;;;;;;;;;;;;;;;-155.54;100.00;57697.75;5001130;28;20076;-74
2022/09/01 02:53:26;;;;;;;;;;;;;;;-155.54;100.00;57697.75;4997336;28;19996;-74
2022/09/01 02:55:52;;;;;;;;;;;;;;;-155.54;100.00;57697.75;4986756;28;20496;-75
2022/09/01 02:58:19;;;;;;;;;;;;;;;-155.54;100.00;57697.75;4986350;28;19997;-73
2022/09/01 03:00:44;;;;;;;;;;;;;;;-155.54;100.00;57697.75;4986412;28;20071;-73
2022/09/01 03:03:11;;;;;;;;;;;;;;;-155.54;100.00;57697.75;5003973;28;20086;-75
2022/09/01 03:05:38;;;;;;;;;;;;;;;-155.54;100.00;57697.75;4985572;28;20052;-75
2022/09/01 03:08:04;;;;;;;;;;;;;;;-155.54;100.00;57697.75;5003580;28;19966;-73
2022/09/01 03:10:31;;;;;;;;;;;;;;;-155.54;100.00;57697.75;4984513;28;19994;-74
2022/09/01 03:13:00;;;;;;;;;;;;;;;-155.54;100.00;57697.75;5002929;28;20384;-74
2022/09/01 03:15:26;;;;;;;;;;;;;;;-155.54;100.00;57697.75;4983329;28;20528;-74
2022/09/01 03:17:51;;;;;;;;;;;;;;;-155.54;100.00;57697.75;4979691;28;20029;-73
2022/09/01 03:20:20;;;;;;;;;;;;;;;-155.54;100.00;57697.75;4996969;28;19978;-74
2022/09/01 03:22:46;;;;;;;;;;;;;;;-155.54;100.00;57697.75;5000024;28;19990;-75
2022/09/01 03:25:11;;;;;;;;;;;;;;;-155.54;100.00;57697.75;4999573;28;19976;-74
2022/09/01 03:27:37;;;;;;;;;;;;;;;-155.54;100.00;57697.75;4984008;28;20486;-74
2022/09/01 03:30:02;;;;;;;;;;;;;;;-155.54;100.00;57697.75;4999148;28;20085;-74
2022/09/01 03:32:28;;;;;;;;;;;;;;;-155.54;100.00;57697.75;4985923;28;19982;-75
2022/09/01 03:34:53;;;;;;;;;;;;;;;-155.54;100.00;57697.75;4983700;28;20302;-74
2022/09/01 03:37:19;;;;;;;;;;;;;;;-155.54;100.00;57697.75;5002386;28;19973;-75
2022/09/01 03:39:45;;;;;;;;;;;;;;;-155.54;100.00;57697.75;4980628;28;19993;-73
2022/09/01 03:42:11;;;;;;;;;;;;;;;-155.54;100.00;57697.75;4998662;28;19986;-73
2022/09/01 03:44:39;;;;;;;;;;;;;;;-155.54;100.00;57697.75;4966493;28;20486;-73
2022/09/01 03:47:09;;;;;;;;;;;;;;;-155.54;100.00;57697.75;5000089;28;20006;-74
2022/09/01 03:49:36;;;;;;;;;;;;;;;-155.54;100.00;57697.75;4979752;28;20410;-75
2022/09/01 03:52:01;;;;;;;;;;;;;;;-155.54;100.00;57697.75;4984088;28;20019;-75
2022/09/01 03:54:29;;;;;;;;;;;;;;;-155.54;100.00;57697.75;4980018;28;20005;-74
2022/09/01 03:56:54;;;;;;;;;;;;;;;-155.54;100.00;57697.75;5002864;28;19990;-74
2022/09/01 03:59:21;;;;;;;;;;;;;;;-155.54;100.00;57697.75;4984783;28;20005;-73
2022/09/01 04:01:46;;;;;;;;;;;;;;;-155.54;100.00;57697.75;4992876;28;20635;-73
2022/09/01 04:04:12;;;;;;;;;;;;;;;-155.54;100.00;57697.75;5001991;28;20004;-75
2022/09/01 04:06:38;;;;;;;;;;;;;;;-155.54;100.00;57697.75;4984082;28;20000;-74
2022/09/01 04:09:03;;;;;;;;;;;;;;;-155.54;100.00;57697.75;5003349;28;19970;-75
2022/09/01 04:11:29;;;;;;;;;;;;;;;-155.54;100.00;57697.75;4999691;28;20052;-74
2022/09/01 04:13:54;;;;;;;;;;;;;;;-155.54;100.00;57697.75;4983966;28;19993;-75
2022/09/01 04:19:14;;;;;;;;;;;;;;;-155.54;100.00;57697.75;4996472;28;20084;-76
2022/09/01 04:21:41;;;;;;;;;;;;;;;-155.54;100.00;57697.75;4984766;28;19997;-75
2022/09/01 04:24:09;;;;;;;;;;;;;;;-155.54;100.00;57697.75;4995458;28;20376;-73
2022/09/01 04:26:34;;;;;;;;;;;;;;;-155.54;100.00;57697.75;4981616;28;20455;-74
2022/09/01 04:28:59;;;;;;;;;;;;;;;-155.54;100.00;57697.75;4995517;28;20001;-74
2022/09/01 04:31:25;;;;;;;;;;;;;;;-155.54;100.00;57697.75;4964069;28;20084;-74
2022/09/01 04:33:51;;;;;;;;;;;;;;;-155.54;100.00;57697.75;4995433;28;19998;-74
2022/09/01 04:36:21;;;;;;;;;;;;;;;-155.54;100.00;57697.75;4997988;28;19974;-75
2022/09/01 04:38:53;;;;;;;;;;;;;;;-155.54;100.00;57697.75;4994396;28;20341;-74
2022/09/01 04:41:19;;;;;;;;;;;;;;;-155.54;100.00;57697.75;4996621;28;19984;-74
2022/09/01 04:43:46;;;;;;;;;;;;;;;-155.54;100.00;57697.75;4977120;28;19967;-74
2022/09/01 04:46:13;;;;;;;;;;;;;;;-155.54;100.00;57697.75;4983942;28;20002;-74
2022/09/01 04:48:41;;;;;;;;;;;;;;;-155.54;100.00;57697.75;4998985;28;20239;-74
2022/09/01 04:51:09;;;;;;;;;;;;;;;-155.54;100.00;57697.75;4977739;28;20024;-73
2022/09/01 04:53:34;;;;;;;;;;;;;;;-155.54;100.00;57697.75;4993478;28;20021;-73
2022/09/01 04:56:03;;;;;;;;;;;;;;;-155.54;100.00;57697.75;4998125;28;20071;-74
2022/09/01 04:58:29;;;;;;;;;;;;;;;-155.54;100.00;57697.75;4996545;28;20446;-72
2022/09/01 05:00:54;;;;;;;;;;;;;;;-155.54;100.00;57697.75;4984724;28;20033;-73
2022/09/01 05:03:22;;;;;;;;;;;;;;;-155.54;100.00;57697.75;4997837;28;20002;-73
2022/09/01 05:05:48;;;;;;;;;;;;;;;-155.54;100.00;57697.75;4984305;28;19993;-72
2022/09/01 05:08:14;;;;;;;;;;;;;;;-155.54;100.00;57697.75;4979429;28;20205;-73
2022/09/01 05:10:41;;;;;;;;;;;;;;;-155.54;100.00;57697.75;4982803;28;20048;-74
2022/09/01 05:13:08;;;;;;;;;;;;;;;-155.54;100.00;57697.75;4998858;28;20604;-74
2022/09/01 05:15:34;;;;;;;;;;;;;;;-155.54;100.00;57697.75;4984230;28;19994;-74
2022/09/01 05:18:00;;;;;;;;;;;;;;;-155.54;100.00;57697.75;4998900;28;20396;-74
2022/09/01 05:20:28;;;;;;;;;;;;;;;-155.54;100.00;57697.75;5000949;28;19990;-73
2022/09/01 05:22:56;;;;;;;;;;;;;;;-155.54;100.00;57697.75;4980585;28;20465;-74
2022/09/01 05:25:22;;;;;;;;;;;;;;;-155.54;100.00;57697.75;4981058;28;20048;-72
2022/09/01 05:27:51;;;;;;;;;;;;;;;-155.54;100.00;57697.75;4995795;28;20005;-74
2022/09/01 05:30:17;;;;;;;;;;;;;;;-155.54;100.00;57697.75;4999640;28;19994;-74
2022/09/01 05:32:46;;;;;;;;;;;;;;;-155.54;100.00;57697.75;4995105;28;20347;-73
2022/09/01 05:35:11;;;;;;;;;;;;;;;-155.54;100.00;57697.75;4994311;28;20005;-72
2022/09/01 05:37:36;;;;;;;;;;;;;;;-155.54;100.00;57697.75;4979239;28;19994;-72
2022/09/01 05:40:03;;;;;;;;;;;;;;;-155.54;100.00;57697.75;4994452;28;19994;-76
2022/09/01 05:42:29;;;;;;;;;;;;;;;-155.54;100.00;57697.75;4963433;28;20011;-74
2022/09/01 05:44:54;;;;;;;;;;;;;;;-155.54;100.00;57697.75;4977649;28;20013;-73
2022/09/01 05:47:20;;;;;;;;;;;;;;;-155.54;100.00;57697.75;4992487;28;20530;-74
2022/09/01 05:49:45;;;;;;;;;;;;;;;-155.54;100.00;57697.75;4973700;28;20315;-75
2022/09/01 05:52:10;;;;;;;;;;;;;;;-155.54;100.00;57697.75;4995465;28;20069;-75
2022/09/01 05:54:36;;;;;;;;;;;;;;;-155.54;100.00;57697.75;4995041;28;20380;-74
2022/09/01 05:57:02;;;;;;;;;;;;;;;-155.54;100.00;57697.75;4996487;28;20024;-74
2022/09/01 05:59:29;;;;;;;;;;;;;;;-155.54;100.00;57697.75;4983429;28;19998;-73
2022/09/01 06:01:55;;;;;;;;;;;;;;;-155.54;100.00;57697.75;4957998;28;20514;-74
2022/09/01 06:04:21;;;;;;;;;;;;;;;-155.54;100.00;57697.75;4996631;28;19970;-73
2022/09/01 06:06:48;;;;;;;;;;;;;;;-155.54;100.00;57697.75;4974203;28;20001;-73
2022/09/01 06:09:16;;;;;;;;;;;;;;;-155.54;100.00;57697.75;4980547;28;20035;-73
2022/09/01 06:11:42;;;;;;;;;;;;;;;-155.54;100.00;57697.75;4981000;28;20036;-74
2022/09/01 06:14:09;;;;;;;;;;;;;;;-155.54;100.00;57697.75;4999465;28;20443;-73
2022/09/01 06:16:36;;;;;;;;;;;;;;;-155.54;100.00;57697.75;4968490;28;19970;-74
2022/09/01 06:19:01;;;;;;;;;;;;;;;-155.54;100.00;57697.75;4998556;28;20002;-73
2022/09/01 06:21:27;;;;;;;;;;;;;;;-155.54;100.00;57697.75;4983166;28;20123;-74
2022/09/01 06:23:53;;;;;;;;;;;;;;;-155.54;100.00;57697.75;4993031;28;19970;-74
2022/09/01 06:26:19;;;;;;;;;;;;;;;-155.54;100.00;57697.75;4999454;28;20365;-74
2022/09/01 06:28:44;;;;;;;;;;;;;;;-155.54;100.00;57697.75;4979125;28;19966;-75
2022/09/01 06:31:11;;;;;;;;;;;;;;;-155.54;100.00;57697.75;4999871;28;19990;-69
2022/09/01 06:33:36;;;;;;;;;;;;;;;-155.54;100.00;57697.75;4981609;28;19974;-69
2022/09/01 06:36:04;;;;;;;;;;;;;;;-155.54;100.00;57697.75;4999495;28;19977;-69
2022/09/01 06:38:29;;;;;;;;;;;;;;;-155.54;100.00;57697.75;4998913;28;20008;-69
2022/09/01 06:41:01;;;;;;;;;;;;;;;-155.54;100.00;57697.75;4991169;28;19974;-68
2022/09/01 06:43:29;;;;;;;;;;;;;;;-155.54;100.00;57697.75;5001664;28;19989;-68
2022/09/01 06:45:54;;;;;;;;;;;;;;;-155.54;100.00;57697.75;5001163;28;19998;-69
2022/09/01 06:48:21;;;;;;;;;;;;;;;-155.54;100.00;57697.75;5001168;28;19978;-68
2022/09/01 06:50:46;;;;;;;;;;;;;;;-155.54;100.00;57697.75;4989496;28;20485;-68
2022/09/01 06:53:15;;;;;;;;;;;;;;;-155.54;100.00;57697.75;4988806;28;20424;-67
2022/09/01 06:55:40;;;;;;;;;;;;;;;-155.54;100.00;57697.75;4991405;28;20025;-67
2022/09/01 06:58:06;;;;;;;;;;;;;;;-155.54;100.00;57697.75;4990933;28;20748;-68
2022/09/01 07:00:40;;;;;;;;;;;;;;;-155.54;100.00;57697.75;4992970;28;19977;-68
2022/09/01 07:03:08;;;;;;;;;;;;;;;-155.54;100.00;57697.75;4994413;28;19988;-68
2022/09/01 07:05:37;;;;;;;;;;;;;;;-155.54;100.00;57697.75;4973840;28;19996;-68
2022/09/01 07:08:06;;;;;;;;;;;;;;;-155.54;100.00;57697.75;4995724;28;19966;-68
2022/09/01 07:10:31;;;;;;;;;;;;;;;-155.54;100.00;57697.75;4993333;28;19995;-68
2022/09/01 07:12:57;;;;;;;;;;;;;;;-155.54;100.00;57697.75;4991474;28;20069;-68
2022/09/01 07:15:23;;;;;;;;;;;;;;;-155.54;100.00;57697.75;4998120;28;20208;-68
2022/09/01 07:17:50;;;;;;;;;;;;;;;-155.54;100.00;57697.75;4999441;28;19994;-67
2022/09/01 07:20:15;;;;;;;;;;;;;;;-155.54;100.00;57697.75;4991636;28;19926;-67
2022/09/01 07:22:41;;;;;;;;;;;;;;;-155.54;100.00;57697.75;4996860;28;20378;-68
2022/09/01 07:25:11;;;;;;;;;;;;;;;-155.54;100.00;57697.75;4995306;28;19926;-68
2022/09/01 07:27:37;;;;;;;;;;;;;;;-155.54;100.00;57697.75;4989486;28;20667;-67
2022/09/01 07:30:03;;;;;;;;;;;;;;;-155.54;100.00;57697.75;4992214;28;19925;-67
2022/09/01 07:32:29;;;;;;;;;;;;;;;-155.54;100.00;57697.75;4996285;28;20373;-68
2022/09/01 07:34:55;;;;;;;;;;;;;;;-155.54;100.00;57697.75;4973091;28;19925;-68
2022/09/01 07:37:21;;;;;;;;;;;;;;;-155.54;100.00;57697.75;4991851;28;19964;-68
2022/09/01 07:39:47;;;;;;;;;;;;;;;-155.54;100.00;57697.75;4996712;28;20029;-68
2022/09/01 07:42:15;;;;;;;;;;;;;;;-155.54;100.00;57697.75;4997470;28;20418;-67
2022/09/01 07:44:41;;;;;;;;;;;;;;;-155.54;100.00;57697.75;4996455;28;20422;-67
2022/09/01 07:47:08;;;;;;;;;;;;;;;-155.54;100.00;57697.75;4994129;28;19930;-68
2022/09/01 07:49:35;;;;;;;;;;;;;;;-155.54;100.00;57697.75;4997426;28;19988;-68
2022/09/01 07:52:02;;;;;;;;;;;;;;;-155.54;100.00;57697.75;4992491;28;19974;-69
2022/09/01 07:54:29;;;;;;;;;;;;;;;-155.54;100.00;57697.75;4986611;28;19999;-68
2022/09/01 07:56:54;;;;;;;;;;;;;;;-155.54;100.00;57697.75;5001581;28;20560;-68
2022/09/01 07:59:20;;;;;;;;;;;;;;;-155.54;100.00;57697.75;4991302;28;20186;-68
2022/09/01 08:01:46;;;;;;;;;;;;;;;-155.54;100.00;57697.75;4997661;28;20048;-68
2022/09/01 08:04:11;;;;;;;;;;;;;;;-155.54;100.00;57697.75;4995126;28;20217;-68
2022/09/01 08:06:37;;;;;;;;;;;;;;;-155.54;100.00;57697.75;4992687;28;20462;-68
2022/09/01 08:09:05;;;;;;;;;;;;;;;-155.54;100.00;57697.75;5001107;28;20585;-68
2022/09/01 08:11:30;;;;;;;;;;;;;;;-155.54;100.00;57697.75;4991349;28;20018;-69
2022/09/01 08:13:57;;;;;;;;;;;;;;;-155.54;100.00;57697.75;4984479;28;19982;-68
2022/09/01 08:16:23;;;;;;;;;;;;;;;-155.54;100.00;57697.75;4996942;28;19973;-68
2022/09/01 08:18:48;;;;;;;;;;;;;;;-155.54;100.00;57697.75;4999637;28;20059;-68
2022/09/01 08:21:13;;;;;;;;;;;;;;;-155.54;100.00;57697.75;4991135;28;20045;-68
2022/09/01 08:23:39;;;;;;;;;;;;;;;-155.54;100.00;57697.75;4995948;28;20442;-67
2022/09/01 08:26:05;;;;;;;;;;;;;;;-155.54;100.00;57697.75;4990584;28;19984;-68
2022/09/01 08:28:30;;;;;;;;;;;;;;;-155.54;100.00;57697.75;4989403;28;20057;-68
2022/09/01 08:30:56;;;;;;;;;;;;;;;-155.54;100.00;57697.75;4992596;28;20654;-68
2022/09/01 08:33:21;;;;;;;;;;;;;;;-155.54;100.00;57697.75;4992540;28;19997;-68
2022/09/01 08:35:47;;;;;;;;;;;;;;;-155.54;100.00;57697.75;4992228;28;20456;-68
2022/09/01 08:38:12;;;;;;;;;;;;;;;-155.54;100.00;57697.75;4994132;28;19930;-68
2022/09/01 08:40:37;;;;;;;;;;;;;;;-155.54;100.00;57697.75;4984274;28;20035;-68
2022/09/01 08:43:06;;;;;;;;;;;;;;;-155.54;100.00;57697.75;4988173;28;19991;-68
2022/09/01 08:45:34;;;;;;;;;;;;;;;-155.54;100.00;57697.75;4975172;28;20394;-68
2022/09/01 08:48:01;;;;;;;;;;;;;;;-155.54;100.00;57697.75;5001783;28;20244;-68
2022/09/01 08:50:26;;;;;;;;;;;;;;;-155.54;100.00;57697.75;4975733;28;19992;-68
2022/09/01 08:53:00;;;;;;;;;;;;;;;-155.54;100.00;57697.75;4987690;28;19970;-68
2022/09/01 08:55:27;;;;;;;;;;;;;;;-155.54;100.00;57697.75;4995716;28;19990;-68
2022/09/01 08:57:56;;;;;;;;;;;;;;;-155.54;100.00;57697.75;4997605;28;20062;-68
2022/09/01 09:00:25;;;;;;;;;;;;;;;-155.54;100.00;57697.75;4976279;28;20011;-68
2022/09/01 09:03:09;;;;;;;;;;;;;;;-155.54;100.00;57697.75;4995602;28;19928;-68
2022/09/01 09:05:37;;;;;;;;;;;;;;;-155.54;100.00;57697.75;4997449;28;20354;-66
2022/09/01 09:08:05;;;;;;;;;;;;;;;-155.54;100.00;57697.75;4963291;28;20430;-68
2022/09/01 09:10:48;;;;;;;;;;;;;;;-155.54;100.00;57697.75;4988055;28;19953;-67
2022/09/01 09:13:16;;;;;;;;;;;;;;;-155.54;100.00;57697.75;4992588;28;19944;-68
2022/09/01 09:15:41;;;;;;;;;;;;;;;-155.54;100.00;57697.75;4998094;28;19917;-67
2022/09/01 09:18:12;;;;;;;;;;;;;;;-155.54;100.00;57697.75;4992427;28;20450;-68
2022/09/01 09:20:37;;;;;;;;;;;;;;;-155.54;100.00;57697.75;4969392;28;19921;-68
2022/09/01 09:23:06;;;;;;;;;;;;;;;-155.54;100.00;57697.75;4992176;28;20276;-67
2022/09/01 09:25:31;;;;;;;;;;;;;;;-155.54;100.00;57697.75;4970640;28;20003;-67
2022/09/01 09:27:57;;;;;;;;;;;;;;;-155.54;100.00;57697.75;4990752;28;20012;-67
2022/09/01 09:30:25;;;;;;;;;;;;;;;-155.54;100.00;57697.75;4995026;28;19925;-68
2022/09/01 09:32:59;;;;;;;;;;;;;;;-155.54;100.00;57697.75;4995166;28;20004;-68
2022/09/01 09:35:31;;;;;;;;;;;;;;;-155.54;100.00;57697.75;5001105;28;19922;-67
2022/09/01 09:38:17;;;;;;;;;;;;;;;-155.54;100.00;57697.75;4994061;28;19932;-68
2022/09/01 09:40:56;;;;;;;;;;;;;;;-155.54;100.00;57697.75;4997921;28;20287;-67
2022/09/01 09:43:22;;;;;;;;;;;;;;;-155.54;100.00;57697.75;4995324;28;19921;-68
2022/09/01 09:45:48;;;;;;;;;;;;;;;-155.54;100.00;57697.75;4979351;28;19985;-67
2022/09/01 09:48:26;;;;;;;;;;;;;;;-155.54;100.00;57697.75;4994849;28;19926;-67
2022/09/01 09:50:51;;;;;;;;;;;;;;;-155.54;100.00;57697.75;4979692;28;19918;-67
2022/09/01 09:53:27;;;;;;;;;;;;;;;-155.54;100.00;57697.75;4982073;28;19980;-67
2022/09/01 09:55:59;;;;;;;;;;;;;;;-155.54;100.00;57697.75;4977611;28;19918;-67
2022/09/01 09:58:26;;;;;;;;;;;;;;;-155.54;100.00;57697.75;4979708;28;20319;-68
2022/09/01 10:00:59;;;;;;;;;;;;;;;-155.54;100.00;57697.75;4973523;28;19921;-67
2022/09/01 10:03:33;;;;;;;;;;;;;;;-155.54;100.00;57697.75;4979018;28;20023;-76
2022/09/01 10:05:58;;;;;;;;;;;;;;;-155.54;100.00;57697.75;4984322;28;19978;-74
2022/09/01 10:08:26;;;;;;;;;;;;;;;-155.54;100.00;57697.75;4985751;28;19963;-73
2022/09/01 10:10:52;;;;;;;;;;;;;;;-155.54;100.00;57697.75;4984190;28;20455;-73
2022/09/01 10:13:18;;;;;;;;;;;;;;;-155.54;100.00;57697.75;4984845;28;19975;-75
2022/09/01 10:15:51;;;;;;;;;;;;;;;-155.54;100.00;57697.75;4983188;28;19989;-74
2022/09/01 10:18:18;;;;;;;;;;;;;;;-155.54;100.00;57697.75;4983550;28;20542;-72
2022/09/01 10:20:45;;;;;;;;;;;;;;;-155.54;100.00;57697.75;4982762;28;19969;-74
2022/09/01 10:23:10;;;;;;;;;;;;;;;-155.54;100.00;57697.75;4976046;28;19926;-73
2022/09/01 10:25:36;;;;;;;;;;;;;;;-155.54;100.00;57697.75;4974545;28;20231;-75
2022/09/01 10:28:12;;;;;;;;;;;;;;;-155.54;100.00;57697.75;4974797;28;19918;-75
2022/09/01 10:30:41;;;;;;;;;;;;;;;-155.54;100.00;57697.75;4970417;28;20326;-73
2022/09/01 10:33:06;;;;;;;;;;;;;;;-155.54;100.00;57697.75;4982968;28;19921;-75
2022/09/01 10:35:33;;;;;;;;;;;;;;;-155.54;100.00;57697.75;4982586;28;19982;-73
2022/09/01 10:37:59;;;;;;;;;;;;;;;-155.54;100.00;57697.75;4981022;28;19921;-73
2022/09/01 10:40:27;;;;;;;;;;;;;;;-155.54;100.00;57697.75;4967572;28;19925;-73
2022/09/01 10:43:11;;;;;;;;;;;;;;;-155.54;100.00;57697.75;4984491;28;19922;-74
2022/09/01 10:45:38;;;;;;;;;;;;;;;-155.54;100.00;57697.75;4986183;28;19925;-75
2022/09/01 10:48:25;;;;;;;;;;;;;;;-155.54;100.00;57697.75;4970988;28;19944;-74
2022/09/01 10:50:51;;;;;;;;;;;;;;;-155.54;100.00;57697.75;4984974;28;20398;-73
2022/09/01 10:53:31;;;;;;;;;;;;;;;-155.54;100.00;57697.75;4984652;28;19928;-73
2022/09/01 10:56:16;;;;;;;;;;;;;;;-155.54;100.00;57697.75;5002295;28;19921;-75
2022/09/01 10:58:47;;;;;;;;;;;;;;;-155.54;100.00;57697.75;5002604;28;19926;-74
2022/09/01 11:01:13;;;;;;;;;;;;;;;-155.54;100.00;57697.75;5003318;28;19975;-74
2022/09/01 11:03:48;;;;;;;;;;;;;;;-155.54;100.00;57697.75;5000721;28;20367;-73
2022/09/01 11:06:30;;;;;;;;;;;;;;;-155.54;100.00;57697.75;5000047;28;20362;-74
2022/09/01 11:08:57;;;;;;;;;;;;;;;-155.54;100.00;57697.75;4981281;28;19914;-73
2022/09/01 11:11:22;;;;;;;;;;;;;;;-155.54;100.00;57697.75;4984835;28;20283;-73
2022/09/01 11:13:53;;;;;;;;;;;;;;;-155.54;100.00;57697.75;4999494;28;19956;-74
2022/09/01 11:16:31;;;;;;;;;;;;;;;-155.54;100.00;57697.75;4968237;28;20279;-75
2022/09/01 11:19:14;;;;;;;;;;;;;;;-155.54;100.00;57697.75;4996000;28;19956;-75
2022/09/01 11:21:40;;;;;;;;;;;;;;;-155.54;100.00;57697.75;4997878;28;20322;-74
2022/09/01 11:24:24;;;;;;;;;;;;;;;-155.54;100.00;57697.75;4994837;28;19928;-74
2022/09/01 11:26:49;;;;;;;;;;;;;;;-155.54;100.00;57697.75;4992018;28;19928;-74
2022/09/01 11:29:33;;;;;;;;;;;;;;;-155.54;100.00;57697.75;4998541;28;19917;-74
2022/09/01 11:31:58;;;;;;;;;;;;;;;-155.54;100.00;57697.75;4999931;28;19921;-75
2022/09/01 11:34:23;;;;;;;;;;;;;;;-155.54;100.00;57697.75;4999705;28;20028;-75
2022/09/01 11:36:57;;;;;;;;;;;;;;;-155.54;100.00;57697.75;5002133;28;19945;-77
2022/09/01 11:39:28;;;;;;;;;;;;;;;-155.54;100.00;57697.75;4968590;28;19932;-74
2022/09/01 11:42:07;;;;;;;;;;;;;;;-155.54;100.00;57697.75;5000944;28;19955;-74
2022/09/01 11:44:45;;;;;;;;;;;;;;;-155.54;100.00;57697.75;4985128;28;19922;-74
2022/09/01 11:47:11;;;;;;;;;;;;;;;-155.54;100.00;57697.75;4985437;28;19936;-75
2022/09/01 11:49:45;;;;;;;;;;;;;;;-155.54;100.00;57697.75;4980222;28;19921;-75
2022/09/01 11:52:13;;;;;;;;;;;;;;;-155.54;100.00;57697.75;4999400;28;19932;-76
2022/09/01 11:54:39;;;;;;;;;;;;;;;-155.54;100.00;57697.75;4996987;28;19929;-77
2022/09/01 11:57:17;;;;;;;;;;;;;;;-155.54;100.00;57697.75;5000648;28;19928;-73
2022/09/01 11:59:43;;;;;;;;;;;;;;;-155.54;100.00;57697.75;4982288;28;20007;-75
2022/09/01 12:02:08;;;;;;;;;;;;;;;-155.54;100.00;57697.75;4982363;28;19918;-74
2022/09/01 12:04:36;;;;;;;;;;;;;;;-155.54;100.00;57697.75;4978723;28;19941;-75
2022/09/01 12:07:10;;;;;;;;;;;;;;;-155.54;100.00;57697.75;4980980;28;19918;-74
2022/09/01 12:09:35;;;;;;;;;;;;;;;-155.54;100.00;57697.75;4992379;28;20023;-75
2022/09/01 12:12:01;;;;;;;;;;;;;;;-155.54;100.00;57697.75;4999202;28;19972;-74
2022/09/01 12:14:26;;;;;;;;;;;;;;;-155.54;100.00;57697.75;4975353;28;19925;-74
2022/09/01 12:17:00;;;;;;;;;;;;;;;-155.54;100.00;57697.75;4998758;28;19917;-77
2022/09/01 12:19:27;;;;;;;;;;;;;;;-155.54;100.00;57697.75;4992903;28;20456;-76
2022/09/01 12:21:57;;;;;;;;;;;;;;;-155.54;100.00;57697.75;4963670;28;20397;-77
2022/09/01 12:24:23;;;;;;;;;;;;;;;-155.54;100.00;57697.75;4965269;28;20001;-77
2022/09/01 12:26:49;;;;;;;;;;;;;;;-155.54;100.00;57697.75;4959950;28;20052;-74
2022/09/01 12:29:15;;;;;;;;;;;;;;;-155.54;100.00;57697.75;4958882;28;19995;-74